sensor_id;sensor_type;location;lat;lon;timestamp;temperature;humidity
53643;DHT22;39546;45.534;12.048;2022-08-21T00:00:07;25.80;64.70
53643;DHT22;39546;45.534;12.048;2022-08-21T00:06:14;25.80;64.60
53643;DHT22;39546;45.534;12.048;2022-08-21T00:12:16;25.70;64.60
53643;DHT22;39546;45.534;12.048;2022-08-21T00:18:19;25.60;64.70
53643;DHT22;39546;45.534;12.048;2022-08-21T00:24:22;25.60;64.80
53643;DHT22;39546;45.534;12.048;2022-08-21T00:30:25;25.50;65.00
53643;DHT22;39546;45.534;12.048;2022-08-21T00:36:28;25.50;65.30
53643;DHT22;39546;45.534;12.048;2022-08-21T00:42:30;25.40;65.40
53643;DHT22;39546;45.534;12.048;2022-08-21T00:48:33;25.30;65.60
53643;DHT22;39546;45.534;12.048;2022-08-21T00:54:36;25.30;65.70
53643;DHT22;39546;45.534;12.048;2022-08-21T01:00:43;25.20;65.80
53643;DHT22;39546;45.534;12.048;2022-08-21T01:06:45;25.10;66.00
53643;DHT22;39546;45.534;12.048;2022-08-21T01:12:47;25.00;66.10
53643;DHT22;39546;45.534;12.048;2022-08-21T01:18:49;25.10;66.20
53643;DHT22;39546;45.534;12.048;2022-08-21T01:24:52;25.10;66.10
53643;DHT22;39546;45.534;12.048;2022-08-21T01:31:14;25.10;66.10
53643;DHT22;39546;45.534;12.048;2022-08-21T01:37:46;24.90;66.40
53643;DHT22;39546;45.534;12.048;2022-08-21T01:43:48;24.80;66.60
53643;DHT22;39546;45.534;12.048;2022-08-21T01:49:50;24.80;66.60
53643;DHT22;39546;45.534;12.048;2022-08-21T01:55:53;24.80;66.80
53643;DHT22;39546;45.534;12.048;2022-08-21T02:01:55;24.80;66.80
53643;DHT22;39546;45.534;12.048;2022-08-21T02:07:57;24.80;66.80
53643;DHT22;39546;45.534;12.048;2022-08-21T02:13:59;24.70;67.00
53643;DHT22;39546;45.534;12.048;2022-08-21T02:20:01;24.70;67.20
53643;DHT22;39546;45.534;12.048;2022-08-21T02:26:05;24.60;67.20
53643;DHT22;39546;45.534;12.048;2022-08-21T02:32:08;24.30;67.50
53643;DHT22;39546;45.534;12.048;2022-08-21T02:38:13;24.30;67.70
53643;DHT22;39546;45.534;12.048;2022-08-21T02:44:15;24.20;67.70
53643;DHT22;39546;45.534;12.048;2022-08-21T02:50:28;24.10;67.80
53643;DHT22;39546;45.534;12.048;2022-08-21T02:56:30;24.00;68.00
53643;DHT22;39546;45.534;12.048;2022-08-21T03:02:33;24.10;68.00
53643;DHT22;39546;45.534;12.048;2022-08-21T03:08:37;24.10;67.90
53643;DHT22;39546;45.534;12.048;2022-08-21T03:14:39;24.20;68.50
53643;DHT22;39546;45.534;12.048;2022-08-21T03:20:42;24.20;68.50
53643;DHT22;39546;45.534;12.048;2022-08-21T03:26:44;24.20;68.30
53643;DHT22;39546;45.534;12.048;2022-08-21T03:32:47;24.00;68.60
53643;DHT22;39546;45.534;12.048;2022-08-21T03:38:50;23.90;68.60
53643;DHT22;39546;45.534;12.048;2022-08-21T03:44:52;24.00;68.60
53643;DHT22;39546;45.534;12.048;2022-08-21T03:50:54;24.00;68.60
53643;DHT22;39546;45.534;12.048;2022-08-21T03:56:56;23.90;68.60
53643;DHT22;39546;45.534;12.048;2022-08-21T04:02:58;23.80;68.90
53643;DHT22;39546;45.534;12.048;2022-08-21T04:09:00;23.80;69.30
53643;DHT22;39546;45.534;12.048;2022-08-21T04:15:03;23.80;69.20
53643;DHT22;39546;45.534;12.048;2022-08-21T04:21:06;23.70;69.30
53643;DHT22;39546;45.534;12.048;2022-08-21T04:27:09;23.60;69.30
53643;DHT22;39546;45.534;12.048;2022-08-21T04:33:11;23.60;69.40
53643;DHT22;39546;45.534;12.048;2022-08-21T04:39:13;23.60;69.40
53643;DHT22;39546;45.534;12.048;2022-08-21T04:45:30;23.70;69.30
53643;DHT22;39546;45.534;12.048;2022-08-21T04:51:41;23.70;69.30
53643;DHT22;39546;45.534;12.048;2022-08-21T04:57:43;23.70;69.20
53643;DHT22;39546;45.534;12.048;2022-08-21T05:03:47;23.70;69.40
53643;DHT22;39546;45.534;12.048;2022-08-21T05:16:47;23.80;69.40
53643;DHT22;39546;45.534;12.048;2022-08-21T05:22:50;23.80;69.30
53643;DHT22;39546;45.534;12.048;2022-08-21T05:28:53;23.70;69.40
53643;DHT22;39546;45.534;12.048;2022-08-21T05:34:55;23.70;69.40
53643;DHT22;39546;45.534;12.048;2022-08-21T05:40:59;23.80;69.30
53643;DHT22;39546;45.534;12.048;2022-08-21T05:47:08;23.80;69.20
53643;DHT22;39546;45.534;12.048;2022-08-21T05:53:12;23.80;69.20
53643;DHT22;39546;45.534;12.048;2022-08-21T05:59:14;23.80;69.20
53643;DHT22;39546;45.534;12.048;2022-08-21T06:05:17;23.90;69.00
53643;DHT22;39546;45.534;12.048;2022-08-21T06:11:47;24.00;68.90
53643;DHT22;39546;45.534;12.048;2022-08-21T06:17:49;24.20;68.70
53643;DHT22;39546;45.534;12.048;2022-08-21T06:23:51;24.30;68.60
53643;DHT22;39546;45.534;12.048;2022-08-21T06:30:33;24.40;68.40
53643;DHT22;39546;45.534;12.048;2022-08-21T06:36:35;24.50;68.20
53643;DHT22;39546;45.534;12.048;2022-08-21T06:42:37;24.70;68.00
53643;DHT22;39546;45.534;12.048;2022-08-21T06:48:39;24.80;67.60
53643;DHT22;39546;45.534;12.048;2022-08-21T06:54:42;25.00;67.40
53643;DHT22;39546;45.534;12.048;2022-08-21T07:00:47;25.10;67.00
53643;DHT22;39546;45.534;12.048;2022-08-21T07:06:51;25.20;66.70
53643;DHT22;39546;45.534;12.048;2022-08-21T07:12:54;25.30;66.50
53643;DHT22;39546;45.534;12.048;2022-08-21T07:18:56;25.40;66.30
53643;DHT22;39546;45.534;12.048;2022-08-21T07:24:58;25.50;66.20
53643;DHT22;39546;45.534;12.048;2022-08-21T07:31:02;25.60;66.20
53643;DHT22;39546;45.534;12.048;2022-08-21T07:37:06;25.80;65.90
53643;DHT22;39546;45.534;12.048;2022-08-21T07:43:08;25.80;65.50
53643;DHT22;39546;45.534;12.048;2022-08-21T07:49:10;25.90;65.30
53643;DHT22;39546;45.534;12.048;2022-08-21T07:55:14;25.90;65.00
53643;DHT22;39546;45.534;12.048;2022-08-21T08:01:37;26.00;64.80
53643;DHT22;39546;45.534;12.048;2022-08-21T08:07:40;26.20;64.50
53643;DHT22;39546;45.534;12.048;2022-08-21T08:13:45;26.30;64.40
53643;DHT22;39546;45.534;12.048;2022-08-21T08:19:48;26.30;64.10
53643;DHT22;39546;45.534;12.048;2022-08-21T08:25:50;26.40;63.70
53643;DHT22;39546;45.534;12.048;2022-08-21T08:31:52;26.40;63.90
53643;DHT22;39546;45.534;12.048;2022-08-21T08:37:54;26.60;63.60
53643;DHT22;39546;45.534;12.048;2022-08-21T08:44:03;26.70;63.20
53643;DHT22;39546;45.534;12.048;2022-08-21T08:56:13;26.90;62.50
53643;DHT22;39546;45.534;12.048;2022-08-21T09:02:16;27.00;62.00
53643;DHT22;39546;45.534;12.048;2022-08-21T09:08:42;27.10;61.50
53643;DHT22;39546;45.534;12.048;2022-08-21T09:21:30;27.40;60.50
53643;DHT22;39546;45.534;12.048;2022-08-21T09:27:34;27.50;59.90
53643;DHT22;39546;45.534;12.048;2022-08-21T09:33:38;27.60;59.70
53643;DHT22;39546;45.534;12.048;2022-08-21T09:39:40;27.80;59.30
53643;DHT22;39546;45.534;12.048;2022-08-21T09:45:42;27.80;59.10
53643;DHT22;39546;45.534;12.048;2022-08-21T09:51:51;27.90;58.90
53643;DHT22;39546;45.534;12.048;2022-08-21T09:57:55;28.00;58.50
53643;DHT22;39546;45.534;12.048;2022-08-21T10:04:08;28.20;58.50
53643;DHT22;39546;45.534;12.048;2022-08-21T10:10:26;28.30;58.00
53643;DHT22;39546;45.534;12.048;2022-08-21T10:43:03;29.10;55.60
53643;DHT22;39546;45.534;12.048;2022-08-21T10:55:24;29.40;54.20
53643;DHT22;39546;45.534;12.048;2022-08-21T11:01:50;29.70;53.80
53643;DHT22;39546;45.534;12.048;2022-08-21T11:07:55;30.00;52.90
53643;DHT22;39546;45.534;12.048;2022-08-21T11:14:21;30.20;52.40
53643;DHT22;39546;45.534;12.048;2022-08-21T11:26:57;30.80;51.20
53643;DHT22;39546;45.534;12.048;2022-08-21T11:40:12;31.30;50.00
53643;DHT22;39546;45.534;12.048;2022-08-21T11:45:58;31.30;49.50
53643;DHT22;39546;45.534;12.048;2022-08-21T11:58:46;31.60;48.70
53643;DHT22;39546;45.534;12.048;2022-08-21T12:05:04;31.80;47.70
53643;DHT22;39546;45.534;12.048;2022-08-21T12:11:31;31.70;47.40
53643;DHT22;39546;45.534;12.048;2022-08-21T12:17:37;31.80;46.70
53643;DHT22;39546;45.534;12.048;2022-08-21T12:23:47;31.70;46.20
53643;DHT22;39546;45.534;12.048;2022-08-21T12:29:52;31.70;46.50
53643;DHT22;39546;45.534;12.048;2022-08-21T12:36:10;31.50;46.00
53643;DHT22;39546;45.534;12.048;2022-08-21T12:42:20;31.40;46.50
53643;DHT22;39546;45.534;12.048;2022-08-21T12:54:38;31.50;47.10
53643;DHT22;39546;45.534;12.048;2022-08-21T13:00:51;31.30;47.90
53643;DHT22;39546;45.534;12.048;2022-08-21T13:06:55;30.90;48.80
53643;DHT22;39546;45.534;12.048;2022-08-21T13:13:04;30.90;50.00
53643;DHT22;39546;45.534;12.048;2022-08-21T13:19:07;30.90;50.10
53643;DHT22;39546;45.534;12.048;2022-08-21T13:25:15;30.80;50.60
53643;DHT22;39546;45.534;12.048;2022-08-21T13:31:26;30.90;50.30
53643;DHT22;39546;45.534;12.048;2022-08-21T13:37:29;31.10;50.50
53643;DHT22;39546;45.534;12.048;2022-08-21T13:43:33;31.20;50.40
53643;DHT22;39546;45.534;12.048;2022-08-21T13:49:39;31.30;50.40
53643;DHT22;39546;45.534;12.048;2022-08-21T13:55:43;31.30;50.10
53643;DHT22;39546;45.534;12.048;2022-08-21T14:08:41;31.30;49.70
53643;DHT22;39546;45.534;12.048;2022-08-21T14:14:51;31.30;50.30
53643;DHT22;39546;45.534;12.048;2022-08-21T14:21:09;31.30;50.10
53643;DHT22;39546;45.534;12.048;2022-08-21T14:27:12;31.40;50.30
53643;DHT22;39546;45.534;12.048;2022-08-21T14:39:25;31.50;49.80
53643;DHT22;39546;45.534;12.048;2022-08-21T14:45:29;31.50;49.90
53643;DHT22;39546;45.534;12.048;2022-08-21T14:51:31;31.60;49.90
53643;DHT22;39546;45.534;12.048;2022-08-21T14:57:33;31.70;49.90
53643;DHT22;39546;45.534;12.048;2022-08-21T15:03:38;31.70;49.50
53643;DHT22;39546;45.534;12.048;2022-08-21T15:09:40;31.80;49.40
53643;DHT22;39546;45.534;12.048;2022-08-21T15:15:45;31.90;49.20
53643;DHT22;39546;45.534;12.048;2022-08-21T15:21:49;31.90;48.90
53643;DHT22;39546;45.534;12.048;2022-08-21T15:27:51;32.10;48.80
53643;DHT22;39546;45.534;12.048;2022-08-21T15:33:53;32.10;48.40
53643;DHT22;39546;45.534;12.048;2022-08-21T15:39:55;32.20;48.00
53643;DHT22;39546;45.534;12.048;2022-08-21T15:45:59;32.30;47.60
53643;DHT22;39546;45.534;12.048;2022-08-21T15:52:02;32.30;47.50
53643;DHT22;39546;45.534;12.048;2022-08-21T15:58:05;32.30;47.60
53643;DHT22;39546;45.534;12.048;2022-08-21T16:04:07;32.20;47.60
53643;DHT22;39546;45.534;12.048;2022-08-21T16:10:13;32.20;46.80
53643;DHT22;39546;45.534;12.048;2022-08-21T16:16:34;32.20;46.30
53643;DHT22;39546;45.534;12.048;2022-08-21T16:22:37;32.30;46.20
53643;DHT22;39546;45.534;12.048;2022-08-21T16:28:43;32.20;46.50
53643;DHT22;39546;45.534;12.048;2022-08-21T16:34:48;32.20;46.80
53643;DHT22;39546;45.534;12.048;2022-08-21T16:40:53;32.30;47.40
53643;DHT22;39546;45.534;12.048;2022-08-21T16:46:55;32.20;47.80
53643;DHT22;39546;45.534;12.048;2022-08-21T16:52:57;32.30;48.10
53643;DHT22;39546;45.534;12.048;2022-08-21T16:58:59;32.30;48.30
53643;DHT22;39546;45.534;12.048;2022-08-21T17:05:01;32.40;48.40
53643;DHT22;39546;45.534;12.048;2022-08-21T17:11:31;32.70;48.80
53643;DHT22;39546;45.534;12.048;2022-08-21T17:17:34;32.40;49.50
53643;DHT22;39546;45.534;12.048;2022-08-21T17:23:36;32.20;49.90
53643;DHT22;39546;45.534;12.048;2022-08-21T17:29:39;32.10;50.10
53643;DHT22;39546;45.534;12.048;2022-08-21T17:35:42;32.00;50.10
53643;DHT22;39546;45.534;12.048;2022-08-21T17:41:44;31.70;51.00
53643;DHT22;39546;45.534;12.048;2022-08-21T17:47:52;31.30;51.70
53643;DHT22;39546;45.534;12.048;2022-08-21T17:53:54;31.00;52.10
53643;DHT22;39546;45.534;12.048;2022-08-21T17:59:56;30.80;52.50
53643;DHT22;39546;45.534;12.048;2022-08-21T18:05:58;30.60;52.90
53643;DHT22;39546;45.534;12.048;2022-08-21T18:12:01;30.40;53.50
53643;DHT22;39546;45.534;12.048;2022-08-21T18:18:05;30.20;53.90
53643;DHT22;39546;45.534;12.048;2022-08-21T18:24:08;30.10;54.10
53643;DHT22;39546;45.534;12.048;2022-08-21T18:30:14;30.00;54.10
53643;DHT22;39546;45.534;12.048;2022-08-21T18:36:16;29.90;54.40
53643;DHT22;39546;45.534;12.048;2022-08-21T18:42:18;29.80;54.60
53643;DHT22;39546;45.534;12.048;2022-08-21T18:48:21;29.80;54.90
53643;DHT22;39546;45.534;12.048;2022-08-21T18:54:25;29.60;55.30
53643;DHT22;39546;45.534;12.048;2022-08-21T19:00:40;29.60;55.40
53643;DHT22;39546;45.534;12.048;2022-08-21T19:06:46;29.50;55.50
53643;DHT22;39546;45.534;12.048;2022-08-21T19:12:48;29.50;55.60
53643;DHT22;39546;45.534;12.048;2022-08-21T19:18:51;29.30;56.10
53643;DHT22;39546;45.534;12.048;2022-08-21T19:24:53;29.30;56.40
53643;DHT22;39546;45.534;12.048;2022-08-21T19:31:12;29.20;56.80
53643;DHT22;39546;45.534;12.048;2022-08-21T19:37:15;29.20;57.00
53643;DHT22;39546;45.534;12.048;2022-08-21T19:43:17;29.10;57.00
53643;DHT22;39546;45.534;12.048;2022-08-21T19:49:23;29.00;57.20
53643;DHT22;39546;45.534;12.048;2022-08-21T19:55:26;28.90;57.70
53643;DHT22;39546;45.534;12.048;2022-08-21T20:01:28;28.90;58.00
53643;DHT22;39546;45.534;12.048;2022-08-21T20:07:30;28.90;58.20
53643;DHT22;39546;45.534;12.048;2022-08-21T20:13:33;28.80;59.20
53643;DHT22;39546;45.534;12.048;2022-08-21T20:19:37;28.70;59.60
53643;DHT22;39546;45.534;12.048;2022-08-21T20:25:39;28.70;59.80
53643;DHT22;39546;45.534;12.048;2022-08-21T20:31:42;28.60;60.20
53643;DHT22;39546;45.534;12.048;2022-08-21T20:37:45;28.60;60.10
53643;DHT22;39546;45.534;12.048;2022-08-21T20:43:47;28.60;60.10
53643;DHT22;39546;45.534;12.048;2022-08-21T20:49:53;28.60;60.00
53643;DHT22;39546;45.534;12.048;2022-08-21T20:55:57;28.50;60.90
53643;DHT22;39546;45.534;12.048;2022-08-21T21:08:56;28.30;62.60
53643;DHT22;39546;45.534;12.048;2022-08-21T21:15:09;28.30;63.00
53643;DHT22;39546;45.534;12.048;2022-08-21T21:27:32;28.00;63.60
53643;DHT22;39546;45.534;12.048;2022-08-21T21:33:43;28.00;63.40
53643;DHT22;39546;45.534;12.048;2022-08-21T21:53:12;27.70;64.50
53643;DHT22;39546;45.534;12.048;2022-08-21T22:11:49;27.30;64.60
53643;DHT22;39546;45.534;12.048;2022-08-21T22:18:10;27.00;65.10
53643;DHT22;39546;45.534;12.048;2022-08-21T22:24:19;27.00;65.30
53643;DHT22;39546;45.534;12.048;2022-08-21T22:31:13;27.10;65.50
53643;DHT22;39546;45.534;12.048;2022-08-21T22:37:16;27.00;65.30
53643;DHT22;39546;45.534;12.048;2022-08-21T22:43:22;27.10;65.30
53643;DHT22;39546;45.534;12.048;2022-08-21T22:56:11;26.90;66.10
53643;DHT22;39546;45.534;12.048;2022-08-21T23:02:43;26.70;67.00
53643;DHT22;39546;45.534;12.048;2022-08-21T23:08:46;26.70;67.40
53643;DHT22;39546;45.534;12.048;2022-08-21T23:14:49;26.80;67.30
53643;DHT22;39546;45.534;12.048;2022-08-21T23:27:58;26.80;67.50
53643;DHT22;39546;45.534;12.048;2022-08-21T23:52:49;26.70;68.00
53643;DHT22;39546;45.534;12.048;2022-08-21T23:59:24;26.60;67.90
